Time;durP1;ratioP1;P1;durP2;ratioP2;P2;SDS_P1;SDS_P2;PMS_P1;PMS_P2;Temp;Humidity;BMP_temperature;BMP_pressure;BME280_temperature;BME280_humidity;BME280_pressure;Samples;Min_cycle;Max_cycle;Signal;HPM_P1;HPM_P2
2023/10/12 00:00:37;;;;;;;12.95;6.18;;;18.90;99.90;;;;;;5073277;28;20255;-75
2023/10/12 00:03:05;;;;;;;13.10;6.60;;;18.90;99.90;;;;;;5073032;28;20218;-75
2023/10/12 00:05:34;;;;;;;8.35;5.75;;;18.90;99.90;;;;;;5071747;28;20579;-75
2023/10/12 00:08:07;;;;;;;9.25;6.40;;;18.90;99.90;;;;;;5072682;28;20196;-75
2023/10/12 00:10:41;;;;;;;7.38;5.70;;;19.00;99.90;;;;;;5073091;28;20173;-75
2023/10/12 00:13:11;;;;;;;8.02;6.13;;;18.90;99.90;;;;;;5073097;28;20176;-75
2023/10/12 00:15:41;;;;;;;10.20;6.15;;;18.80;99.90;;;;;;5073151;28;20183;-76
2023/10/12 00:18:10;;;;;;;8.95;6.50;;;18.80;99.90;;;;;;5073034;28;20663;-75
2023/10/12 00:20:39;;;;;;;8.00;6.15;;;18.80;99.90;;;;;;5074685;28;20172;-76
2023/10/12 00:23:09;;;;;;;11.07;6.50;;;18.80;99.90;;;;;;5076762;28;20183;-74
2023/10/12 00:25:54;;;;;;;11.38;6.30;;;18.80;99.90;;;;;;5076935;28;20218;-75
2023/10/12 00:28:21;;;;;;;10.48;6.25;;;18.80;99.90;;;;;;5076900;28;20165;-75
2023/10/12 00:30:49;;;;;;;9.13;6.65;;;18.80;99.90;;;;;;5076796;28;20691;-75
2023/10/12 00:33:17;;;;;;;10.73;6.00;;;18.90;99.90;;;;;;5076906;28;20180;-74
2023/10/12 00:35:48;;;;;;;12.15;6.65;;;18.90;99.90;;;;;;5076759;28;20529;-75
2023/10/12 00:38:18;;;;;;;12.27;6.50;;;18.80;99.90;;;;;;5076615;28;20259;-74
2023/10/12 00:40:57;;;;;;;7.22;6.53;;;18.80;99.90;;;;;;5076644;28;20176;-74
2023/10/12 00:43:36;;;;;;;12.52;6.45;;;18.70;99.90;;;;;;5076755;28;20168;-75
2023/10/12 00:46:16;;;;;;;9.75;6.07;;;18.60;99.90;;;;;;5076431;28;20640;-76
2023/10/12 00:48:47;;;;;;;10.75;6.40;;;18.60;99.90;;;;;;5076216;28;20176;-74
2023/10/12 00:51:16;;;;;;;13.65;7.00;;;18.60;99.90;;;;;;5076487;28;20195;-74
2023/10/12 00:53:55;;;;;;;11.05;6.60;;;18.60;99.90;;;;;;5076284;28;20187;-75
2023/10/12 00:56:25;;;;;;;9.77;6.65;;;18.70;99.90;;;;;;5076357;28;20200;-75
2023/10/12 00:58:54;;;;;;;13.48;7.20;;;18.70;99.90;;;;;;5076195;28;20176;-75
2023/10/12 01:01:20;;;;;;;13.25;7.28;;;18.70;99.90;;;;;;5076140;28;20195;-75
2023/10/12 01:03:47;;;;;;;10.80;7.03;;;18.70;99.90;;;;;;5076254;28;20179;-75
2023/10/12 01:06:27;;;;;;;11.88;7.20;;;18.60;99.90;;;;;;5075881;28;20243;-75
2023/10/12 01:08:57;;;;;;;8.27;6.63;;;18.60;99.90;;;;;;5076072;28;20700;-75
2023/10/12 01:11:26;;;;;;;9.98;7.38;;;18.60;99.90;;;;;;5076131;28;20164;-75
2023/10/12 01:16:28;;;;;;;10.32;7.88;;;18.50;99.90;;;;;;5076367;28;20663;-75
2023/10/12 01:19:31;;;;;;;10.15;7.57;;;18.30;99.90;;;;;;5075947;28;20651;-73
2023/10/12 01:21:47;;;;;;;11.48;8.25;;;18.20;99.90;;;;;;5073080;28;20217;-74
2023/10/12 01:24:13;;;;;;;12.88;7.70;;;18.10;99.90;;;;;;5074322;28;20212;-74
2023/10/12 01:26:49;;;;;;;12.90;8.63;;;18.00;99.90;;;;;;5075682;28;20243;-74
2023/10/12 01:29:22;;;;;;;10.43;7.65;;;18.00;99.90;;;;;;5075796;28;20196;-74
2023/10/12 01:32:20;;;;;;;11.85;7.82;;;18.00;99.90;;;;;;5075641;28;20191;-73
2023/10/12 01:34:37;;;;;;;13.00;8.07;;;17.90;99.90;;;;;;5075365;28;20181;-73
2023/10/12 01:37:21;;;;;;;10.27;7.95;;;17.80;99.90;;;;;;5075396;28;20569;-73
2023/10/12 01:40:09;;;;;;;13.70;8.27;;;17.70;99.90;;;;;;5075553;28;20234;-74
2023/10/12 01:45:17;;;;;;;12.73;8.15;;;17.70;99.90;;;;;;5075371;28;20681;-74
2023/10/12 01:47:44;;;;;;;10.10;7.93;;;17.60;99.90;;;;;;5075552;28;20403;-74
2023/10/12 01:50:11;;;;;;;12.23;8.83;;;17.60;99.90;;;;;;5074984;28;20221;-73
2023/10/12 01:52:37;;;;;;;12.13;9.13;;;17.50;99.90;;;;;;5075333;28;20173;-75
2023/10/12 01:55:15;;;;;;;14.40;9.80;;;17.40;99.90;;;;;;5075310;28;20197;-74
2023/10/12 01:57:51;;;;;;;14.33;10.03;;;17.50;99.90;;;;;;5075147;28;20591;-74
2023/10/12 02:00:23;;;;;;;12.27;9.15;;;17.50;99.90;;;;;;5075100;28;20171;-73
2023/10/12 02:03:00;;;;;;;12.30;9.30;;;17.50;99.90;;;;;;5075132;28;20659;-74
2023/10/12 02:05:36;;;;;;;14.18;8.75;;;17.50;99.90;;;;;;5074670;28;20231;-74
2023/10/12 02:08:05;;;;;;;14.07;9.07;;;17.30;99.90;;;;;;5074854;28;20169;-74
2023/10/12 02:10:41;;;;;;;15.53;9.23;;;17.30;99.90;;;;;;5074987;28;20659;-74
2023/10/12 02:13:07;;;;;;;14.35;9.95;;;17.30;99.90;;;;;;5075214;28;20153;-74
2023/10/12 02:15:32;;;;;;;15.57;10.00;;;17.40;99.90;;;;;;5074741;28;20207;-74
2023/10/12 02:17:59;;;;;;;14.55;10.35;;;17.50;99.90;;;;;;5075092;28;20169;-74
2023/10/12 02:20:32;;;;;;;15.17;9.47;;;17.40;99.90;;;;;;5073995;28;20238;-72
2023/10/12 02:23:01;;;;;;;17.93;9.97;;;17.30;99.90;;;;;;5074862;28;20173;-74
2023/10/12 02:25:28;;;;;;;12.38;9.48;;;17.30;99.90;;;;;;5074610;28;20215;-74
2023/10/12 02:27:58;;;;;;;17.27;10.03;;;17.20;99.90;;;;;;5074868;28;20180;-74
2023/10/12 02:30:30;;;;;;;15.97;10.23;;;17.20;99.90;;;;;;5074807;28;20168;-74
2023/10/12 02:33:07;;;;;;;14.77;9.70;;;17.20;99.90;;;;;;5074319;28;20172;-73
2023/10/12 02:35:44;;;;;;;12.57;9.60;;;17.10;99.90;;;;;;5073204;28;20180;-73
2023/10/12 02:38:14;;;;;;;15.33;10.53;;;17.10;99.90;;;;;;5074606;28;20176;-74
2023/10/12 02:40:41;;;;;;;13.90;10.20;;;17.20;99.90;;;;;;5074416;28;20180;-74
2023/10/12 02:43:10;;;;;;;13.40;9.87;;;17.20;99.90;;;;;;5073923;28;20176;-74
2023/10/12 02:45:41;;;;;;;14.10;9.95;;;17.30;99.90;;;;;;5074138;28;20207;-73
2023/10/12 02:48:13;;;;;;;13.52;9.70;;;17.30;99.90;;;;;;5073910;28;20169;-73
2023/10/12 02:50:57;;;;;;;13.93;10.60;;;17.10;99.90;;;;;;5074257;28;20175;-74
2023/10/12 02:53:28;;;;;;;17.30;10.80;;;17.20;99.90;;;;;;5074320;28;20181;-74
2023/10/12 02:55:58;;;;;;;16.30;10.07;;;17.10;99.90;;;;;;5073759;28;20173;-75
2023/10/12 02:58:24;;;;;;;13.80;9.95;;;17.20;99.90;;;;;;5074091;28;20263;-75
2023/10/12 03:00:56;;;;;;;14.60;10.25;;;17.30;99.90;;;;;;5074250;28;20161;-73
2023/10/12 03:03:27;;;;;;;14.60;10.27;;;17.30;99.90;;;;;;5072668;28;20583;-75
2023/10/12 03:05:58;;;;;;;13.80;10.13;;;17.30;99.90;;;;;;5073820;28;20592;-75
2023/10/12 03:08:30;;;;;;;13.90;9.77;;;17.30;99.90;;;;;;5073692;28;20180;-75
2023/10/12 03:13:35;;;;;;;17.07;10.43;;;17.10;99.90;;;;;;5073933;28;20196;-75
2023/10/12 03:18:35;;;;;;;17.30;10.67;;;17.10;99.90;;;;;;5072965;28;20214;-74
2023/10/12 03:21:19;;;;;;;15.93;10.70;;;17.10;99.90;;;;;;5073053;28;20629;-75
2023/10/12 03:23:46;;;;;;;14.60;10.00;;;17.10;99.90;;;;;;5073368;28;20184;-74
2023/10/12 03:26:24;;;;;;;16.50;9.90;;;17.00;99.90;;;;;;5073355;28;20271;-75
2023/10/12 03:28:53;;;;;;;17.33;10.83;;;17.00;99.90;;;;;;5073456;28;20255;-75
2023/10/12 03:31:34;;;;;;;14.90;10.70;;;17.00;99.90;;;;;;5072978;28;20176;-75
2023/10/12 03:34:00;;;;;;;15.30;11.17;;;17.00;99.90;;;;;;5073458;28;20176;-75
2023/10/12 03:36:36;;;;;;;14.50;11.80;;;16.90;99.90;;;;;;5073123;28;20569;-74
2023/10/12 03:39:13;;;;;;;16.13;11.03;;;16.90;99.90;;;;;;5073271;28;20187;-75
2023/10/12 03:44:49;;;;;;;16.47;11.60;;;16.90;99.90;;;;;;5073050;28;20215;-76
2023/10/12 03:52:27;;;;;;;18.67;11.40;;;16.80;99.90;;;;;;5073199;28;20201;-76
2023/10/12 04:02:45;;;;;;;16.10;11.13;;;16.70;99.90;;;;;;5072978;28;20168;-73
2023/10/12 04:05:20;;;;;;;14.30;10.80;;;16.80;99.90;;;;;;5072576;28;20307;-74
2023/10/12 04:21:23;;;;;;;14.67;11.53;;;16.70;99.90;;;;;;5072551;28;20235;-74
2023/10/12 04:29:08;;;;;;;18.87;11.70;;;16.60;99.90;;;;;;5072498;28;20168;-75
2023/10/12 04:31:34;;;;;;;16.47;11.70;;;16.60;99.90;;;;;;5072716;28;20643;-74
2023/10/12 04:39:11;;;;;;;18.10;12.20;;;16.70;99.90;;;;;;5072420;28;20172;-74
2023/10/12 04:41:38;;;;;;;15.93;12.17;;;16.70;99.90;;;;;;5072374;28;20205;-75
2023/10/12 04:47:30;;;;;;;19.57;11.20;;;16.60;99.90;;;;;;5072530;28;20180;-75
2023/10/12 04:49:54;;;;;;;17.33;11.27;;;16.60;99.90;;;;;;5069848;28;20551;-75
2023/10/12 04:52:26;;;;;;;17.40;12.37;;;16.50;99.90;;;;;;5071972;28;20192;-76
2023/10/12 04:55:19;;;;;;;16.10;11.50;;;16.60;99.90;;;;;;5072150;28;20169;-75
2023/10/12 04:57:47;;;;;;;14.13;11.73;;;16.60;99.90;;;;;;5072342;28;20199;-76
2023/10/12 05:05:54;;;;;;;17.20;12.67;;;16.70;99.90;;;;;;5071909;28;20695;-75
2023/10/12 05:08:05;;;;;;;16.93;11.33;;;16.70;99.90;;;;;;5075696;28;20645;-75
2023/10/12 05:10:31;;;;;;;15.97;11.70;;;16.70;99.90;;;;;;5075540;28;20286;-75
2023/10/12 05:13:05;;;;;;;15.83;11.60;;;16.70;99.90;;;;;;5074836;28;20217;-75
2023/10/12 05:15:42;;;;;;;18.13;11.80;;;16.70;99.90;;;;;;5076119;28;20293;-74
2023/10/12 05:18:12;;;;;;;18.67;11.90;;;16.60;99.90;;;;;;5075404;28;20195;-75
2023/10/12 05:20:41;;;;;;;16.20;12.10;;;16.60;99.90;;;;;;5075299;28;20165;-75
2023/10/12 05:23:07;;;;;;;21.00;11.63;;;16.70;99.90;;;;;;5075886;28;20179;-73
2023/10/12 05:25:47;;;;;;;16.90;12.10;;;16.60;99.90;;;;;;5074892;28;20230;-74
2023/10/12 05:28:18;;;;;;;19.73;11.90;;;16.70;99.90;;;;;;5074965;28;20707;-74
2023/10/12 05:30:59;;;;;;;16.33;11.33;;;16.70;99.90;;;;;;5074627;28;20600;-74
2023/10/12 05:33:38;;;;;;;18.37;11.90;;;16.70;99.90;;;;;;5074061;28;20229;-75
2023/10/12 05:36:09;;;;;;;20.00;11.60;;;16.70;99.90;;;;;;5075051;28;20182;-75
2023/10/12 05:38:39;;;;;;;19.00;11.30;;;16.70;99.90;;;;;;5074242;28;20659;-75
2023/10/12 05:41:09;;;;;;;17.27;10.80;;;16.70;99.90;;;;;;5074225;28;20290;-75
2023/10/12 05:43:39;;;;;;;20.20;10.83;;;16.70;99.90;;;;;;5072893;28;20227;-75
2023/10/12 05:46:13;;;;;;;19.77;10.70;;;16.70;99.90;;;;;;5073407;28;20208;-76
2023/10/12 05:48:45;;;;;;;15.13;10.63;;;16.70;99.90;;;;;;5073187;28;20640;-74
2023/10/12 05:51:15;;;;;;;14.77;10.63;;;16.70;99.90;;;;;;5073718;28;20180;-75
2023/10/12 05:53:40;;;;;;;16.87;9.50;;;16.60;99.90;;;;;;5073527;28;20175;-75
2023/10/12 05:56:06;;;;;;;19.77;10.20;;;16.60;99.90;;;;;;5073466;28;20169;-74
2023/10/12 05:58:34;;;;;;;15.07;10.10;;;16.60;99.90;;;;;;5074179;28;20253;-76
2023/10/12 06:01:08;;;;;;;13.47;9.67;;;16.40;99.90;;;;;;5073765;28;20169;-75
2023/10/12 06:03:36;;;;;;;16.37;10.27;;;16.40;99.90;;;;;;5074784;28;20640;-76
2023/10/12 06:06:02;;;;;;;11.17;9.07;;;16.30;99.90;;;;;;5073784;28;20220;-76
2023/10/12 06:08:29;;;;;;;14.87;10.13;;;16.30;99.90;;;;;;5074427;28;20212;-75
2023/10/12 06:10:55;;;;;;;14.23;10.53;;;16.30;99.90;;;;;;5073860;28;20227;-74
2023/10/12 06:13:30;;;;;;;17.97;9.83;;;16.40;99.90;;;;;;5073447;28;20576;-75
2023/10/12 06:15:56;;;;;;;15.37;9.80;;;16.40;99.90;;;;;;5073929;28;20511;-74
2023/10/12 06:18:25;;;;;;;14.77;10.07;;;16.40;99.90;;;;;;5071818;28;20226;-74
2023/10/12 06:21:06;;;;;;;16.57;9.97;;;16.40;99.90;;;;;;5073222;28;20365;-74
2023/10/12 06:23:32;;;;;;;17.07;10.50;;;16.40;99.90;;;;;;5074009;28;20518;-75
2023/10/12 06:25:58;;;;;;;18.10;11.37;;;16.40;99.90;;;;;;5072862;28;20212;-75
2023/10/12 06:28:27;;;;;;;13.13;11.43;;;16.50;99.90;;;;;;5073483;28;20252;-75
2023/10/12 06:30:53;;;;;;;17.30;11.43;;;16.50;99.90;;;;;;5072960;28;20680;-75
2023/10/12 06:33:22;;;;;;;14.93;10.27;;;16.50;99.90;;;;;;5073871;28;20247;-75
2023/10/12 06:36:01;;;;;;;13.63;10.73;;;16.50;99.90;;;;;;5073325;28;20188;-75
2023/10/12 06:38:39;;;;;;;17.30;11.03;;;16.60;99.90;;;;;;5073443;28;20165;-74
2023/10/12 06:46:19;;;;;;;18.97;10.83;;;16.70;99.90;;;;;;5071577;28;20242;-78
2023/10/12 06:48:45;;;;;;;17.23;11.63;;;16.80;99.90;;;;;;5072502;28;20160;-76
2023/10/12 06:51:13;;;;;;;21.57;11.93;;;16.80;99.90;;;;;;5072777;28;20176;-76
2023/10/12 06:53:41;;;;;;;20.07;12.40;;;16.80;99.90;;;;;;5073553;28;20583;-76
2023/10/12 07:04:18;;;;;;;17.63;12.83;;;16.70;99.90;;;;;;5073363;28;20200;-75
2023/10/12 07:06:59;;;;;;;18.53;12.70;;;16.70;99.90;;;;;;5072675;28;20180;-76
2023/10/12 07:09:46;;;;;;;15.40;13.17;;;16.80;99.90;;;;;;5072339;28;20165;-75
2023/10/12 07:12:14;;;;;;;16.10;12.23;;;16.70;99.90;;;;;;5072959;28;20172;-75
2023/10/12 07:14:47;;;;;;;14.60;12.17;;;16.70;99.90;;;;;;5072502;28;20777;-75
2023/10/12 07:17:16;;;;;;;18.63;11.40;;;16.70;99.90;;;;;;5072630;28;20306;-75
2023/10/12 07:19:47;;;;;;;16.43;11.40;;;16.70;99.90;;;;;;5072501;28;20172;-75
2023/10/12 07:22:15;;;;;;;15.03;10.93;;;16.70;99.90;;;;;;5072974;28;20224;-75
2023/10/12 07:24:42;;;;;;;18.30;11.07;;;16.80;99.90;;;;;;5071586;28;20220;-75
2023/10/12 07:27:21;;;;;;;19.73;12.23;;;16.90;99.90;;;;;;5071707;28;20233;-74
2023/10/12 07:30:02;;;;;;;22.00;12.43;;;17.00;99.90;;;;;;5075807;28;20176;-75
2023/10/12 07:35:34;;;;;;;14.07;10.47;;;17.20;99.90;;;;;;5050179;28;21128;-71
2023/10/12 07:38:01;;;;;;;17.80;9.93;;;17.20;99.90;;;;;;5043362;28;20189;-75
2023/10/12 07:40:34;;;;;;;16.23;10.05;;;17.30;99.90;;;;;;5031273;28;20274;-78
2023/10/12 07:43:07;;;;;;;15.93;10.07;;;17.30;99.90;;;;;;5032940;28;20205;-75
2023/10/12 07:45:40;;;;;;;17.05;10.27;;;17.50;99.90;;;;;;5036414;28;20216;-77
2023/10/12 07:48:09;;;;;;;13.45;10.20;;;17.60;99.90;;;;;;5032084;28;20185;-76
2023/10/12 07:50:45;;;;;;;20.90;10.23;;;17.70;99.90;;;;;;5037033;28;20185;-76
2023/10/12 07:53:22;;;;;;;18.63;11.20;;;17.70;99.90;;;;;;5047173;28;20256;-77
2023/10/12 07:55:53;;;;;;;20.77;9.57;;;17.70;99.90;;;;;;5042913;28;20251;-76
2023/10/12 07:58:21;;;;;;;16.45;9.50;;;17.80;99.90;;;;;;5041199;28;20193;-78
2023/10/12 08:00:58;;;;;;;17.50;10.85;;;17.80;99.90;;;;;;5037167;28;20669;-78
2023/10/12 08:03:25;;;;;;;20.88;11.05;;;18.00;99.90;;;;;;5048959;28;20667;-77
2023/10/12 08:05:57;;;;;;;15.80;9.88;;;18.20;99.90;;;;;;5044318;28;20213;-77
2023/10/12 08:08:37;;;;;;;21.38;10.73;;;18.30;99.90;;;;;;5048978;28;20246;-79
2023/10/12 08:11:18;;;;;;;24.73;10.30;;;18.50;99.90;;;;;;5060832;28;20213;-76
2023/10/12 08:13:54;;;;;;;13.57;9.80;;;18.40;99.90;;;;;;5104729;28;20192;-77
2023/10/12 08:16:25;;;;;;;20.00;10.43;;;18.50;99.90;;;;;;5103284;28;20265;-76
2023/10/12 08:31:45;;;;;;;23.13;15.15;;;19.70;99.90;;;;;;5089724;28;20180;-74
2023/10/12 08:34:41;;;;;;;25.02;16.20;;;19.70;99.90;;;;;;5100677;28;20475;-72
2023/10/12 08:39:38;;;;;;;26.73;15.55;;;20.10;99.90;;;;;;5100697;28;20719;-72
2023/10/12 08:44:55;;;;;;;24.40;14.75;;;21.20;99.90;;;;;;5082314;28;20629;-72
2023/10/12 08:48:03;;;;;;;18.48;11.77;;;20.90;99.90;;;;;;5100021;28;20204;-73
2023/10/12 08:52:53;;;;;;;24.83;14.95;;;20.70;99.90;;;;;;5088637;28;20187;-73
2023/10/12 08:55:24;;;;;;;15.20;8.98;;;20.40;99.90;;;;;;5102561;28;20178;-72
2023/10/12 08:57:55;;;;;;;14.32;8.57;;;20.00;99.90;;;;;;5112074;28;20183;-73
2023/10/12 09:03:07;;;;;;;17.55;10.27;;;19.60;99.90;;;;;;5086039;28;20179;-72
2023/10/12 09:05:34;;;;;;;14.45;8.60;;;19.70;99.90;;;;;;5106745;28;20211;-71
2023/10/12 09:08:08;;;;;;;17.73;9.55;;;19.50;99.90;;;;;;5102253;28;20171;-72
2023/10/12 09:10:51;;;;;;;13.55;8.50;;;19.20;99.90;;;;;;5111537;28;20187;-74
2023/10/12 09:13:21;;;;;;;20.85;9.15;;;19.00;99.90;;;;;;5102088;28;20183;-73
2023/10/12 09:15:54;;;;;;;17.88;10.13;;;19.00;99.90;;;;;;5100646;28;20226;-76
2023/10/12 09:18:21;;;;;;;19.42;9.20;;;18.90;99.90;;;;;;5106143;28;20179;-74
2023/10/12 09:31:13;;;;;;;16.75;8.52;;;18.40;99.90;;;;;;5100307;28;20254;-75
2023/10/12 09:34:31;;;;;;;13.15;9.00;;;18.50;99.90;;;;;;5103847;28;20166;-75
2023/10/12 09:36:53;;;;;;;16.33;8.80;;;18.50;99.90;;;;;;5092338;28;20568;-77
2023/10/12 09:39:24;;;;;;;15.73;8.52;;;18.40;99.90;;;;;;5100457;28;20164;-75
2023/10/12 09:41:55;;;;;;;22.25;9.27;;;18.20;99.90;;;;;;5102652;28;20160;-73
2023/10/12 09:44:27;;;;;;;15.70;9.88;;;18.30;99.90;;;;;;5110568;28;20206;-73
2023/10/12 09:46:57;;;;;;;17.33;9.80;;;18.20;99.90;;;;;;5076466;28;20176;-74
2023/10/12 09:49:27;;;;;;;17.48;9.32;;;18.30;99.90;;;;;;5088779;28;20172;-74
2023/10/12 09:51:55;;;;;;;16.17;9.30;;;18.30;99.90;;;;;;5101543;28;20541;-74
2023/10/12 09:54:29;;;;;;;19.40;10.60;;;18.40;99.90;;;;;;5093552;28;20252;-75
2023/10/12 09:57:16;;;;;;;21.90;10.68;;;18.60;99.90;;;;;;5092021;28;20178;-73
2023/10/12 09:59:51;;;;;;;20.02;9.85;;;18.60;99.90;;;;;;5103805;28;20255;-72
2023/10/12 10:02:28;;;;;;;14.23;9.85;;;18.70;99.90;;;;;;5109455;28;20189;-72
2023/10/12 10:05:10;;;;;;;21.83;10.48;;;18.70;99.90;;;;;;5081106;28;20211;-74
2023/10/12 10:07:41;;;;;;;14.98;9.40;;;18.70;99.90;;;;;;5094866;28;20707;-76
2023/10/12 10:10:30;;;;;;;15.68;9.80;;;18.50;99.90;;;;;;5101745;28;20262;-75
2023/10/12 10:12:59;;;;;;;15.13;9.45;;;18.50;99.90;;;;;;5075622;28;20187;-74
2023/10/12 10:15:37;;;;;;;17.55;10.65;;;18.40;99.90;;;;;;5089535;28;20179;-73
2023/10/12 10:18:14;;;;;;;15.75;9.73;;;18.50;99.90;;;;;;5099758;27;20350;-74
2023/10/12 10:20:46;;;;;;;11.10;9.25;;;18.50;99.90;;;;;;5109413;28;20316;-83
2023/10/12 10:23:19;;;;;;;14.45;9.43;;;18.60;99.90;;;;;;5092495;28;20188;-77
2023/10/12 10:26:40;;;;;;;17.23;9.45;;;18.70;99.90;;;;;;5083540;28;20223;-81
2023/10/12 10:28:55;;;;;;;15.25;10.00;;;18.80;99.90;;;;;;5083622;28;20201;-73
2023/10/12 10:31:26;;;;;;;15.25;9.63;;;19.00;99.90;;;;;;5098904;28;20178;-74
2023/10/12 10:33:57;;;;;;;14.80;9.05;;;18.90;99.90;;;;;;5103607;28;20254;-76
2023/10/12 10:36:26;;;;;;;13.52;8.88;;;19.00;99.90;;;;;;5096841;28;20264;-76
2023/10/12 10:44:15;;;;;;;13.65;8.15;;;20.70;99.90;;;;;;5080841;28;20594;-75
2023/10/12 10:47:00;;;;;;;13.38;8.07;;;20.70;99.90;;;;;;5092610;28;20642;-75
2023/10/12 10:49:35;;;;;;;12.90;7.75;;;20.50;99.90;;;;;;5103222;28;20186;-74
2023/10/12 10:54:39;;;;;;;11.95;7.50;;;20.30;99.90;;;;;;5095671;28;20203;-75
2023/10/12 10:57:15;;;;;;;11.23;7.05;;;20.20;99.90;;;;;;5107891;27;20164;-74
2023/10/12 10:59:44;;;;;;;12.05;7.32;;;20.00;99.90;;;;;;5102917;28;20519;-74
2023/10/12 11:02:11;;;;;;;9.98;7.10;;;20.00;99.90;;;;;;5098007;28;20259;-74
2023/10/12 11:07:12;;;;;;;12.73;7.63;;;19.80;99.90;;;;;;5096480;28;20180;-74
2023/10/12 11:12:20;;;;;;;14.38;9.43;;;19.60;99.90;;;;;;5091131;28;20195;-75
2023/10/12 11:15:07;;;;;;;15.05;8.88;;;19.60;99.90;;;;;;5078356;28;20177;-76
2023/10/12 11:17:49;;;;;;;17.95;8.88;;;19.80;99.90;;;;;;5080440;28;20180;-75
2023/10/12 11:20:27;;;;;;;16.30;9.25;;;20.00;99.90;;;;;;5070383;28;20226;-76
2023/10/12 11:22:59;;;;;;;15.98;9.02;;;20.00;99.90;;;;;;5070692;28;20272;-76
2023/10/12 11:25:26;;;;;;;18.77;8.20;;;19.90;99.90;;;;;;5070135;28;20212;-76
2023/10/12 11:27:53;;;;;;;10.57;8.77;;;20.00;99.90;;;;;;5070791;28;20181;-76
2023/10/12 11:30:29;;;;;;;13.80;8.55;;;20.10;99.90;;;;;;5069705;28;20172;-77
2023/10/12 11:32:58;;;;;;;12.38;7.72;;;20.20;99.90;;;;;;5085746;28;20202;-76
2023/10/12 11:35:41;;;;;;;14.32;7.75;;;19.80;99.90;;;;;;5092802;28;20233;-74
2023/10/12 11:38:18;;;;;;;11.35;7.30;;;19.70;99.90;;;;;;5076270;28;20272;-75
2023/10/12 11:40:48;;;;;;;11.93;8.23;;;19.80;99.90;;;;;;5073459;28;20180;-75
2023/10/12 11:43:13;;;;;;;9.80;7.00;;;19.60;99.90;;;;;;5079182;28;20199;-75
2023/10/12 11:46:03;;;;;;;14.07;7.10;;;19.50;99.90;;;;;;5091920;28;20219;-74
2023/10/12 11:48:29;;;;;;;11.32;6.90;;;19.50;99.90;;;;;;5091411;28;20159;-76
2023/10/12 11:51:05;;;;;;;12.93;8.07;;;19.40;99.90;;;;;;5090208;28;20252;-76
2023/10/12 11:53:30;;;;;;;13.35;8.68;;;19.20;99.90;;;;;;5091933;28;20187;-75
2023/10/12 11:56:17;;;;;;;14.32;8.18;;;19.10;99.90;;;;;;5090393;28;20203;-77
2023/10/12 11:58:54;;;;;;;16.23;9.05;;;19.10;99.90;;;;;;5089959;28;20171;-74
2023/10/12 12:01:23;;;;;;;14.93;9.63;;;18.80;99.90;;;;;;5089849;28;20198;-76
2023/10/12 12:03:53;;;;;;;18.67;9.45;;;18.70;99.90;;;;;;5092350;28;20647;-76
2023/10/12 12:06:19;;;;;;;17.20;10.40;;;18.40;99.90;;;;;;5092841;28;20300;-76
2023/10/12 12:08:49;;;;;;;16.73;9.85;;;18.30;99.90;;;;;;5090673;28;20195;-75
2023/10/12 12:11:19;;;;;;;18.45;9.90;;;18.10;99.90;;;;;;5092331;28;20174;-76
2023/10/12 12:13:51;;;;;;;20.50;10.80;;;18.10;99.90;;;;;;5087005;28;20692;-72
2023/10/12 12:16:20;;;;;;;16.50;9.95;;;18.10;99.90;;;;;;5081800;28;20183;-75
2023/10/12 12:18:51;;;;;;;16.27;9.20;;;18.10;99.90;;;;;;5088140;28;20314;-75
2023/10/12 12:21:28;;;;;;;16.27;10.27;;;18.00;99.90;;;;;;5097365;28;20287;-74
2023/10/12 12:26:49;;;;;;;14.80;10.15;;;17.90;99.90;;;;;;5093254;28;20198;-75
2023/10/12 12:29:16;;;;;;;20.50;10.98;;;17.80;99.90;;;;;;5094866;28;20647;-74
2023/10/12 12:31:42;;;;;;;17.40;11.23;;;17.90;99.90;;;;;;5081376;28;20189;-78
2023/10/12 12:34:08;;;;;;;14.97;10.23;;;17.90;99.90;;;;;;5110227;28;20204;-76
2023/10/12 12:36:35;;;;;;;15.07;10.73;;;17.90;99.90;;;;;;5100342;28;20171;-76
2023/10/12 12:39:01;;;;;;;19.03;11.03;;;17.80;99.90;;;;;;5106323;28;20197;-76
2023/10/12 12:41:30;;;;;;;20.83;11.83;;;17.60;99.90;;;;;;5103342;28;20175;-77
2023/10/12 12:43:59;;;;;;;20.07;12.63;;;17.50;99.90;;;;;;5095873;28;20221;-78
2023/10/12 12:46:25;;;;;;;20.23;12.40;;;17.40;99.90;;;;;;5090606;28;20695;-77
2023/10/12 12:48:52;;;;;;;22.60;13.20;;;17.30;99.90;;;;;;5093692;28;20203;-74
2023/10/12 12:51:19;;;;;;;21.03;13.20;;;17.30;99.90;;;;;;5105626;28;20579;-73
2023/10/12 12:53:50;;;;;;;20.70;13.47;;;17.20;99.90;;;;;;5098390;28;20230;-79
2023/10/12 12:56:24;;;;;;;23.17;13.90;;;17.20;99.90;;;;;;5095554;28;20176;-78
2023/10/12 12:58:51;;;;;;;25.63;14.60;;;17.10;99.90;;;;;;5087368;28;20183;-77
2023/10/12 13:01:23;;;;;;;21.97;14.57;;;17.10;99.90;;;;;;5089060;28;20259;-76
2023/10/12 13:03:55;;;;;;;23.70;13.93;;;17.10;99.90;;;;;;5094237;28;20279;-76
2023/10/12 13:06:21;;;;;;;28.17;15.83;;;17.00;99.90;;;;;;5108829;28;20577;-77
2023/10/12 13:08:46;;;;;;;22.50;15.40;;;17.00;99.90;;;;;;5090571;28;20179;-72
2023/10/12 13:11:20;;;;;;;24.47;15.63;;;17.10;99.90;;;;;;5097742;28;20184;-74
2023/10/12 13:13:47;;;;;;;27.17;14.90;;;17.10;99.90;;;;;;5096189;28;20177;-73
2023/10/12 13:16:13;;;;;;;26.37;15.47;;;17.10;99.90;;;;;;5111416;28;20171;-76
2023/10/12 13:18:48;;;;;;;23.70;14.47;;;17.10;99.90;;;;;;5109287;28;20642;-79
2023/10/12 13:21:14;;;;;;;23.47;14.90;;;17.00;99.90;;;;;;5100595;28;20225;-74
2023/10/12 13:23:41;;;;;;;22.43;15.30;;;17.00;99.90;;;;;;5085918;28;20188;-73
2023/10/12 13:26:07;;;;;;;26.33;16.37;;;17.00;99.90;;;;;;5095305;28;20302;-79
2023/10/12 13:28:34;;;;;;;25.77;17.13;;;17.00;99.90;;;;;;5106688;28;20279;-74
2023/10/12 13:30:59;;;;;;;28.07;17.87;;;17.00;99.90;;;;;;5093463;28;20173;-76
2023/10/12 13:33:27;;;;;;;25.63;17.90;;;16.90;99.90;;;;;;5097691;28;20684;-77
2023/10/12 13:35:55;;;;;;;27.20;18.77;;;16.90;99.90;;;;;;5098343;27;20172;-76
2023/10/12 13:38:21;;;;;;;28.73;18.70;;;17.00;99.90;;;;;;5092195;28;20325;-77
2023/10/12 13:40:48;;;;;;;27.43;18.80;;;17.00;99.90;;;;;;5090821;28;20694;-77
2023/10/12 13:43:14;;;;;;;24.67;17.83;;;17.00;99.90;;;;;;5087214;28;20222;-79
2023/10/12 13:45:47;;;;;;;27.53;18.27;;;17.00;99.90;;;;;;5089901;28;20223;-78
2023/10/12 13:48:30;;;;;;;24.97;18.77;;;17.00;99.90;;;;;;5091631;28;20625;-78
2023/10/12 13:51:00;;;;;;;27.03;18.23;;;17.00;99.90;;;;;;5104697;27;20187;-80
2023/10/12 13:53:29;;;;;;;24.47;18.37;;;17.00;99.90;;;;;;5101145;28;20634;-80
2023/10/12 13:55:56;;;;;;;26.90;18.73;;;17.10;99.90;;;;;;5109604;28;20182;-78
2023/10/12 13:58:25;;;;;;;27.70;20.60;;;17.20;99.90;;;;;;5096981;28;20159;-74
2023/10/12 14:00:53;;;;;;;31.17;20.77;;;17.10;99.90;;;;;;5098589;28;20210;-79
2023/10/12 14:03:27;;;;;;;27.43;20.83;;;17.10;99.90;;;;;;5113906;28;20185;-73
2023/10/12 14:05:54;;;;;;;33.57;22.37;;;17.20;99.90;;;;;;5101041;28;20671;-72
2023/10/12 14:08:20;;;;;;;30.60;21.87;;;17.20;99.90;;;;;;5082205;28;20179;-77
2023/10/12 14:10:45;;;;;;;32.97;21.33;;;17.20;99.90;;;;;;5088397;28;20173;-75
2023/10/12 14:13:14;;;;;;;33.03;22.20;;;17.30;99.90;;;;;;5091631;28;20172;-78
2023/10/12 14:15:43;;;;;;;30.07;21.53;;;17.30;99.90;;;;;;5090041;28;20183;-75
2023/10/12 14:18:16;;;;;;;30.87;20.97;;;17.30;99.90;;;;;;5085921;28;20202;-76
2023/10/12 14:20:42;;;;;;;34.97;22.23;;;17.40;99.90;;;;;;5107918;28;20659;-76
2023/10/12 14:23:12;;;;;;;37.60;22.10;;;17.40;99.90;;;;;;5083069;28;20188;-77
2023/10/12 14:25:42;;;;;;;30.33;21.37;;;17.40;99.90;;;;;;5097877;28;20576;-74
2023/10/12 14:28:08;;;;;;;26.93;19.90;;;17.50;99.90;;;;;;5089243;28;20173;-78
2023/10/12 14:30:36;;;;;;;28.20;20.10;;;17.50;99.90;;;;;;5108168;28;20171;-78
2023/10/12 14:33:03;;;;;;;32.80;20.13;;;17.60;99.90;;;;;;5088583;28;20192;-77
2023/10/12 14:35:39;;;;;;;30.10;18.87;;;17.70;99.90;;;;;;5077102;28;20625;-80
2023/10/12 14:38:12;;;;;;;27.30;17.87;;;17.60;99.90;;;;;;5094097;28;20267;-78
2023/10/12 14:40:40;;;;;;;26.90;18.03;;;17.60;99.90;;;;;;5099172;28;20255;-75
2023/10/12 14:43:10;;;;;;;26.80;18.25;;;17.70;99.90;;;;;;5099142;28;20611;-75
2023/10/12 14:45:37;;;;;;;24.70;17.05;;;17.70;99.90;;;;;;5091499;28;20209;-77
2023/10/12 14:48:09;;;;;;;23.77;17.70;;;17.70;99.90;;;;;;5106383;28;20179;-76
2023/10/12 14:50:43;;;;;;;26.15;17.20;;;17.70;99.90;;;;;;5095519;28;20294;-77
2023/10/12 14:53:09;;;;;;;23.92;16.42;;;17.80;99.90;;;;;;5104004;28;20171;-78
2023/10/12 14:55:36;;;;;;;22.00;16.23;;;17.70;99.90;;;;;;5105669;28;20224;-78
2023/10/12 14:58:07;;;;;;;22.27;17.17;;;17.80;99.90;;;;;;5096415;28;20279;-76